Orbital elements of COSMOS 970 DEB
| Launched | 20 December 1977 |
| Flight ended | – |
| Launch site | Tyuratam Missile and Space Center, Kazakhstan (Also known as Baikonur Cosmodrome) |
| Owner | Commonwealth of Independent States (former USSR) |
| NORAD ID | 64973 |
| Date fetched |
Epoch osculation |
Inc. [°] |
Ecc. | RA asc node [hr] |
Arg Peri. [°] |
Mean anom [°] |
Mean motion [rev/day] |
Abs. mag |
| Date fetched |
Epoch osculation |
Inc. [°] |
Ecc. | RA asc node [hr] |
Arg Peri. [°] |
Mean anom [°] |
Mean motion [rev/day] |
Abs. mag |
| 2026 May 03 17:57 | 2026 Apr 29 23:36:51 | 66.8516 | 0.02176 | 8.3638 | 53.4172 | 308.6698 | 13.69174 | – |
| 2026 May 02 17:57 | 2026 Apr 29 23:36:51 | 66.8516 | 0.02176 | 8.3638 | 53.4172 | 308.6698 | 13.69174 | – |
| 2026 May 01 17:56 | 2026 Apr 29 23:36:51 | 66.8516 | 0.02176 | 8.3638 | 53.4172 | 308.6698 | 13.69174 | – |
| 2026 Apr 30 17:56 | 2026 Apr 29 23:36:51 | 66.8516 | 0.02176 | 8.3638 | 53.4172 | 308.6698 | 13.69174 | – |
| 2026 Apr 29 17:57 | 2026 Apr 24 01:36:40 | 66.8519 | 0.02173 | 9.2911 | 57.5594 | 308.6698 | 13.69174 | – |
| 2026 Apr 28 17:56 | 2026 Apr 24 01:36:40 | 66.8519 | 0.02173 | 9.2911 | 57.5594 | 308.6698 | 13.69174 | – |
| 2026 Apr 27 17:58 | 2026 Apr 24 01:36:40 | 66.8519 | 0.02173 | 9.2911 | 57.5594 | 308.6698 | 13.69174 | – |
| 2026 Apr 26 17:58 | 2026 Apr 24 01:36:40 | 66.8519 | 0.02173 | 9.2911 | 57.5594 | 308.6698 | 13.69174 | – |
| 2026 Apr 25 17:58 | 2026 Apr 24 01:36:40 | 66.8519 | 0.02173 | 9.2911 | 57.5594 | 308.6698 | 13.69174 | – |
| 2026 Apr 24 17:59 | 2026 Apr 24 01:36:40 | 66.8519 | 0.02173 | 9.2911 | 57.5594 | 308.6698 | 13.69174 | – |
| 2026 Apr 23 17:57 | 2026 Apr 19 09:24:39 | 66.8531 | 0.02171 | 10.0237 | 60.8558 | 308.6698 | 13.69174 | – |
| 2026 Apr 22 17:57 | 2026 Apr 19 09:24:39 | 66.8531 | 0.02171 | 10.0237 | 60.8558 | 308.6698 | 13.69174 | – |
| 2026 Apr 21 17:57 | 2026 Apr 19 09:24:39 | 66.8531 | 0.02171 | 10.0237 | 60.8558 | 308.6698 | 13.69174 | – |
| 2026 Apr 20 17:57 | 2026 Apr 19 09:24:39 | 66.8531 | 0.02171 | 10.0237 | 60.8558 | 308.6698 | 13.69174 | – |
| 2026 Apr 19 17:58 | 2026 Apr 19 09:24:39 | 66.8531 | 0.02171 | 10.0237 | 60.8558 | 308.6698 | 13.69174 | – |
| 2026 Apr 18 17:56 | 2026 Apr 12 10:51:46 | 66.8540 | 0.02171 | 11.1112 | 65.7794 | 308.6698 | 13.69174 | – |
| 2026 Apr 16 17:57 | 2026 Apr 12 10:51:46 | 66.8540 | 0.02171 | 11.1112 | 65.7794 | 308.6698 | 13.69174 | – |
| 2026 Apr 14 17:57 | 2026 Apr 12 10:51:46 | 66.8540 | 0.02171 | 11.1112 | 65.7794 | 308.6698 | 13.69174 | – |
| 2026 Apr 13 17:57 | 2026 Apr 12 10:51:46 | 66.8540 | 0.02171 | 11.1112 | 65.7794 | 308.6698 | 13.69174 | – |
| 2026 Apr 12 17:57 | 2026 Apr 08 05:10:49 | 66.8544 | 0.02172 | 11.7750 | 68.7903 | 308.6698 | 13.69174 | – |
| 2026 Apr 11 17:57 | 2026 Apr 08 05:10:49 | 66.8544 | 0.02172 | 11.7750 | 68.7903 | 308.6698 | 13.69174 | – |
| 2026 Apr 10 17:58 | 2026 Apr 08 05:10:49 | 66.8544 | 0.02172 | 11.7750 | 68.7903 | 308.6698 | 13.69174 | – |
| 2026 Apr 09 18:01 | 2026 Apr 08 05:10:49 | 66.8544 | 0.02172 | 11.7750 | 68.7903 | 308.6698 | 13.69174 | – |
| 2026 Apr 08 17:57 | 2026 Apr 08 05:10:49 | 66.8544 | 0.02172 | 11.7750 | 68.7903 | 308.6698 | 13.69174 | – |
| 2026 Apr 07 17:57 | 2026 Apr 02 00:09:45 | 66.8544 | 0.02173 | 12.7479 | 73.1874 | 308.6698 | 13.69174 | – |
| 2026 Apr 06 17:57 | 2026 Apr 02 00:09:45 | 66.8544 | 0.02173 | 12.7479 | 73.1874 | 308.6698 | 13.69174 | – |